Iwo Jima Airport
RJAW : now visible

Airfield :











YOU CAN JOIN US ON...

 
LOGIN :

Register | Disclaimer

   EN    FR    IT 

 









Legend :    VFR   Marginal VFR   IFR   Intensive IFR   Very Intensive IFR
Visi :
Ceiling :
>= 8 km
>= 3000ft
5 to 8 km
1000 to 3000 ft
1500m to 5 km
500 to 1000 ft
800 to 1500m
200 to 500 ft
< 800m
< 200 ft
Symbols :   Thunderstorms  Fog  Heavy snow  Heavy precipitations  Wind > 20 kt






- Airport Elevation : 384 ft
- IATA code : IWO


RJAW - Iwo Jima

CURRENT METAR :
  • 120100Z 36014KT 9999 -SHRA SCT005 BKN010 23/21 Q1013 RMK 3ST005 7CU010 A2992

EXPIRED METARs :
  • 120028Z 02012KT 9999 FEW007 BKN010 BKN100 24/21 Q1013 RMK 2ST007 5CU010 7AC100 A2993
  • 120000Z 02013KT 9999 FEW005 SCT010 BKN100 23/21 Q1013 RMK 1ST005 3CU010 6AC100 A2992
  • 112313Z 01013KT 9999 SCT005 BKN012 BKN100 23/21 Q1013 RMK 3ST005 5CU012 7AC100 A2992
  • 112300Z 02013KT 9999 -SHRA SCT015 BKN100 23/21 Q1013 RMK 4CU015 7AC100 A2991

TAF N/A



MET'MAP, your aeronautical weather chart ! - Copyright ORBIFLY December 2007 - Disclaimer

ORBIFLY MET'MAP TEAM :

Programming & Development : Alexandra Zaïnal
Concept & Development : Baudouin d'Aumeries
Co-Development & Prog : Marc-Olivier Méhu
Technical & hardware support : Manuel Goepfert

Contact : metmap@orbifly.com




SOURCES & CREDITS :

   NOAA       Earth
Advisory